sensor_id;sensor_type;location;lat;lon;timestamp;P1;durP1;ratioP1;P2;durP2;ratioP2
21624;SDS011;10974;51.034;3.744;2023-06-22T03:39:48;7.87;;;4.20;;
21624;SDS011;10974;51.034;3.744;2023-06-22T03:42:14;5.70;;;4.53;;
21624;SDS011;10974;51.034;3.744;2023-06-22T03:44:40;4.80;;;4.00;;
21624;SDS011;10974;51.034;3.744;2023-06-22T03:47:06;5.20;;;4.27;;
21624;SDS011;10974;51.034;3.744;2023-06-22T03:49:33;5.40;;;4.40;;
21624;SDS011;10974;51.034;3.744;2023-06-22T03:51:59;9.40;;;3.60;;
21624;SDS011;10974;51.034;3.744;2023-06-22T03:54:26;6.17;;;4.60;;
21624;SDS011;10974;51.034;3.744;2023-06-22T03:56:53;5.00;;;3.90;;
21624;SDS011;10974;51.034;3.744;2023-06-22T03:59:19;6.20;;;3.97;;
21624;SDS011;10974;51.034;3.744;2023-06-22T04:01:45;5.23;;;4.17;;
21624;SDS011;10974;51.034;3.744;2023-06-22T04:04:11;4.80;;;4.03;;
21624;SDS011;10974;51.034;3.744;2023-06-22T04:06:37;5.27;;;4.00;;
21624;SDS011;10974;51.034;3.744;2023-06-22T04:09:03;6.00;;;4.47;;
21624;SDS011;10974;51.034;3.744;2023-06-22T04:11:29;7.10;;;4.73;;
21624;SDS011;10974;51.034;3.744;2023-06-22T04:13:55;10.87;;;4.40;;
21624;SDS011;10974;51.034;3.744;2023-06-22T04:16:21;8.70;;;5.10;;
21624;SDS011;10974;51.034;3.744;2023-06-22T04:18:47;7.13;;;4.40;;
21624;SDS011;10974;51.034;3.744;2023-06-22T04:21:13;8.73;;;4.97;;
21624;SDS011;10974;51.034;3.744;2023-06-22T04:23:39;8.17;;;4.77;;
21624;SDS011;10974;51.034;3.744;2023-06-22T04:26:06;11.13;;;5.00;;
21624;SDS011;10974;51.034;3.744;2023-06-22T04:28:32;8.80;;;5.70;;
21624;SDS011;10974;51.034;3.744;2023-06-22T04:31:01;9.03;;;4.57;;
21624;SDS011;10974;51.034;3.744;2023-06-22T04:33:28;9.73;;;5.90;;
21624;SDS011;10974;51.034;3.744;2023-06-22T04:35:57;9.87;;;6.13;;
21624;SDS011;10974;51.034;3.744;2023-06-22T04:38:23;8.90;;;5.80;;
21624;SDS011;10974;51.034;3.744;2023-06-22T04:40:50;13.53;;;6.10;;
21624;SDS011;10974;51.034;3.744;2023-06-22T04:43:16;10.40;;;6.73;;
21624;SDS011;10974;51.034;3.744;2023-06-22T04:45:42;13.03;;;6.60;;
21624;SDS011;10974;51.034;3.744;2023-06-22T04:48:08;11.70;;;6.43;;
21624;SDS011;10974;51.034;3.744;2023-06-22T04:50:35;13.10;;;7.67;;
21624;SDS011;10974;51.034;3.744;2023-06-22T04:53:03;13.77;;;6.43;;
21624;SDS011;10974;51.034;3.744;2023-06-22T04:55:31;13.23;;;6.60;;
21624;SDS011;10974;51.034;3.744;2023-06-22T04:57:57;17.70;;;8.33;;
21624;SDS011;10974;51.034;3.744;2023-06-22T05:00:29;15.03;;;6.83;;
21624;SDS011;10974;51.034;3.744;2023-06-22T05:02:55;18.23;;;6.33;;
21624;SDS011;10974;51.034;3.744;2023-06-22T05:05:23;13.00;;;7.17;;
21624;SDS011;10974;51.034;3.744;2023-06-22T05:07:50;11.83;;;6.20;;
21624;SDS011;10974;51.034;3.744;2023-06-22T05:10:18;10.67;;;6.20;;
21624;SDS011;10974;51.034;3.744;2023-06-22T05:12:44;11.23;;;5.20;;
21624;SDS011;10974;51.034;3.744;2023-06-22T05:15:13;14.40;;;6.23;;
21624;SDS011;10974;51.034;3.744;2023-06-22T05:17:40;8.97;;;5.93;;
21624;SDS011;10974;51.034;3.744;2023-06-22T05:20:08;9.37;;;5.77;;
21624;SDS011;10974;51.034;3.744;2023-06-22T05:22:35;10.90;;;5.23;;
21624;SDS011;10974;51.034;3.744;2023-06-22T05:25:01;8.90;;;5.57;;
21624;SDS011;10974;51.034;3.744;2023-06-22T05:27:27;10.93;;;5.20;;
21624;SDS011;10974;51.034;3.744;2023-06-22T05:29:53;8.93;;;5.80;;
21624;SDS011;10974;51.034;3.744;2023-06-22T05:32:19;6.77;;;4.53;;
21624;SDS011;10974;51.034;3.744;2023-06-22T05:34:45;7.87;;;4.73;;
21624;SDS011;10974;51.034;3.744;2023-06-22T05:37:12;8.60;;;5.37;;
21624;SDS011;10974;51.034;3.744;2023-06-22T05:39:38;13.13;;;5.07;;
21624;SDS011;10974;51.034;3.744;2023-06-22T05:42:05;12.60;;;5.20;;
21624;SDS011;10974;51.034;3.744;2023-06-22T05:44:31;9.83;;;5.63;;
21624;SDS011;10974;51.034;3.744;2023-06-22T05:46:58;7.63;;;4.90;;
21624;SDS011;10974;51.034;3.744;2023-06-22T05:49:24;9.60;;;5.00;;
21624;SDS011;10974;51.034;3.744;2023-06-22T05:51:55;12.30;;;5.70;;
21624;SDS011;10974;51.034;3.744;2023-06-22T05:54:24;14.47;;;5.03;;
21624;SDS011;10974;51.034;3.744;2023-06-22T05:56:50;11.40;;;4.20;;
21624;SDS011;10974;51.034;3.744;2023-06-22T05:59:18;8.30;;;4.67;;
21624;SDS011;10974;51.034;3.744;2023-06-22T06:01:44;8.43;;;5.37;;
21624;SDS011;10974;51.034;3.744;2023-06-22T06:04:10;14.40;;;4.90;;
21624;SDS011;10974;51.034;3.744;2023-06-22T06:06:36;9.60;;;5.00;;
21624;SDS011;10974;51.034;3.744;2023-06-22T06:09:05;9.13;;;5.33;;
21624;SDS011;10974;51.034;3.744;2023-06-22T06:11:32;7.83;;;5.03;;
21624;SDS011;10974;51.034;3.744;2023-06-22T06:13:58;8.07;;;5.20;;
21624;SDS011;10974;51.034;3.744;2023-06-22T06:16:24;8.27;;;5.50;;
21624;SDS011;10974;51.034;3.744;2023-06-22T06:18:50;5.57;;;4.57;;
21624;SDS011;10974;51.034;3.744;2023-06-22T06:21:18;12.40;;;5.07;;
21624;SDS011;10974;51.034;3.744;2023-06-22T06:23:44;5.57;;;3.83;;
21624;SDS011;10974;51.034;3.744;2023-06-22T06:26:10;5.93;;;4.10;;
21624;SDS011;10974;51.034;3.744;2023-06-22T06:28:36;5.40;;;3.53;;
21624;SDS011;10974;51.034;3.744;2023-06-22T06:31:02;8.30;;;4.20;;
21624;SDS011;10974;51.034;3.744;2023-06-22T06:33:32;5.67;;;3.90;;
21624;SDS011;10974;51.034;3.744;2023-06-22T06:35:58;4.77;;;3.83;;
21624;SDS011;10974;51.034;3.744;2023-06-22T06:38:26;4.67;;;3.83;;
21624;SDS011;10974;51.034;3.744;2023-06-22T06:40:53;5.50;;;3.33;;
21624;SDS011;10974;51.034;3.744;2023-06-22T06:43:19;3.90;;;3.03;;
21624;SDS011;10974;51.034;3.744;2023-06-22T06:45:45;4.80;;;3.60;;
21624;SDS011;10974;51.034;3.744;2023-06-22T06:48:11;4.10;;;3.10;;
21624;SDS011;10974;51.034;3.744;2023-06-22T06:50:37;3.90;;;3.10;;
21624;SDS011;10974;51.034;3.744;2023-06-22T06:53:03;4.50;;;3.47;;
21624;SDS011;10974;51.034;3.744;2023-06-22T06:55:30;5.87;;;2.67;;
21624;SDS011;10974;51.034;3.744;2023-06-22T06:57:58;4.50;;;3.10;;
21624;SDS011;10974;51.034;3.744;2023-06-22T07:00:25;4.27;;;3.20;;
21624;SDS011;10974;51.034;3.744;2023-06-22T07:02:51;3.10;;;2.80;;
21624;SDS011;10974;51.034;3.744;2023-06-22T07:05:17;4.50;;;3.10;;
21624;SDS011;10974;51.034;3.744;2023-06-22T07:07:43;3.60;;;2.67;;
21624;SDS011;10974;51.034;3.744;2023-06-22T07:10:10;3.80;;;2.77;;
21624;SDS011;10974;51.034;3.744;2023-06-22T07:12:36;4.67;;;2.50;;
21624;SDS011;10974;51.034;3.744;2023-06-22T07:15:06;5.60;;;2.80;;
21624;SDS011;10974;51.034;3.744;2023-06-22T07:17:36;3.70;;;2.70;;
21624;SDS011;10974;51.034;3.744;2023-06-22T07:20:04;3.57;;;2.50;;
21624;SDS011;10974;51.034;3.744;2023-06-22T07:22:33;3.27;;;2.10;;
21624;SDS011;10974;51.034;3.744;2023-06-22T07:24:59;3.60;;;2.70;;
21624;SDS011;10974;51.034;3.744;2023-06-22T07:27:26;2.90;;;2.50;;
21624;SDS011;10974;51.034;3.744;2023-06-22T07:29:52;3.13;;;2.60;;
21624;SDS011;10974;51.034;3.744;2023-06-22T07:32:20;3.90;;;3.27;;
21624;SDS011;10974;51.034;3.744;2023-06-22T07:34:46;2.80;;;2.40;;
21624;SDS011;10974;51.034;3.744;2023-06-22T07:37:12;2.93;;;2.30;;
21624;SDS011;10974;51.034;3.744;2023-06-22T07:39:38;3.30;;;2.70;;
21624;SDS011;10974;51.034;3.744;2023-06-22T07:42:04;3.13;;;2.33;;
21624;SDS011;10974;51.034;3.744;2023-06-22T07:44:30;3.13;;;2.63;;
21624;SDS011;10974;51.034;3.744;2023-06-22T07:46:56;4.20;;;2.67;;
21624;SDS011;10974;51.034;3.744;2023-06-22T07:49:22;2.50;;;2.30;;
21624;SDS011;10974;51.034;3.744;2023-06-22T07:51:48;3.30;;;2.60;;
21624;SDS011;10974;51.034;3.744;2023-06-22T07:54:14;3.97;;;3.47;;
21624;SDS011;10974;51.034;3.744;2023-06-22T07:56:42;7.10;;;5.00;;
21624;SDS011;10974;51.034;3.744;2023-06-22T07:59:08;9.70;;;5.50;;
21624;SDS011;10974;51.034;3.744;2023-06-22T08:01:34;7.10;;;5.00;;
21624;SDS011;10974;51.034;3.744;2023-06-22T08:04:00;8.80;;;6.47;;
21624;SDS011;10974;51.034;3.744;2023-06-22T08:06:26;10.10;;;7.43;;
21624;SDS011;10974;51.034;3.744;2023-06-22T08:08:52;10.87;;;7.60;;
21624;SDS011;10974;51.034;3.744;2023-06-22T08:11:19;8.80;;;6.70;;
21624;SDS011;10974;51.034;3.744;2023-06-22T08:13:47;10.53;;;7.27;;
21624;SDS011;10974;51.034;3.744;2023-06-22T08:16:13;10.20;;;7.30;;
21624;SDS011;10974;51.034;3.744;2023-06-22T08:18:40;8.83;;;6.50;;
21624;SDS011;10974;51.034;3.744;2023-06-22T08:21:06;9.77;;;6.87;;
21624;SDS011;10974;51.034;3.744;2023-06-22T08:23:32;11.50;;;7.10;;
21624;SDS011;10974;51.034;3.744;2023-06-22T08:25:58;9.03;;;6.10;;
21624;SDS011;10974;51.034;3.744;2023-06-22T08:28:24;9.10;;;6.20;;
21624;SDS011;10974;51.034;3.744;2023-06-22T08:30:50;12.97;;;6.70;;
21624;SDS011;10974;51.034;3.744;2023-06-22T08:33:16;8.93;;;5.80;;
21624;SDS011;10974;51.034;3.744;2023-06-22T08:35:42;7.97;;;5.27;;
21624;SDS011;10974;51.034;3.744;2023-06-22T08:38:08;5.37;;;4.00;;
21624;SDS011;10974;51.034;3.744;2023-06-22T08:40:35;6.80;;;4.50;;
21624;SDS011;10974;51.034;3.744;2023-06-22T08:43:01;4.70;;;3.37;;
21624;SDS011;10974;51.034;3.744;2023-06-22T08:45:27;6.57;;;3.70;;
21624;SDS011;10974;51.034;3.744;2023-06-22T08:47:53;3.70;;;3.27;;
21624;SDS011;10974;51.034;3.744;2023-06-22T08:50:19;5.80;;;3.73;;
21624;SDS011;10974;51.034;3.744;2023-06-22T08:52:45;6.43;;;3.70;;
21624;SDS011;10974;51.034;3.744;2023-06-22T08:55:12;5.37;;;3.43;;
21624;SDS011;10974;51.034;3.744;2023-06-22T08:57:39;3.00;;;2.73;;
21624;SDS011;10974;51.034;3.744;2023-06-22T09:00:08;5.13;;;3.00;;
21624;SDS011;10974;51.034;3.744;2023-06-22T09:02:41;4.10;;;3.13;;
21624;SDS011;10974;51.034;3.744;2023-06-22T09:05:07;3.90;;;3.17;;
21624;SDS011;10974;51.034;3.744;2023-06-22T09:07:33;7.83;;;3.70;;
21624;SDS011;10974;51.034;3.744;2023-06-22T09:09:59;3.70;;;3.00;;
21624;SDS011;10974;51.034;3.744;2023-06-22T09:12:25;5.53;;;3.60;;
21624;SDS011;10974;51.034;3.744;2023-06-22T09:14:52;4.17;;;3.17;;
21624;SDS011;10974;51.034;3.744;2023-06-22T09:17:19;3.80;;;2.97;;
21624;SDS011;10974;51.034;3.744;2023-06-22T09:19:45;2.83;;;2.57;;
21624;SDS011;10974;51.034;3.744;2023-06-22T09:22:12;3.13;;;2.53;;
21624;SDS011;10974;51.034;3.744;2023-06-22T09:24:38;3.57;;;2.90;;
21624;SDS011;10974;51.034;3.744;2023-06-22T09:27:04;3.30;;;3.00;;
21624;SDS011;10974;51.034;3.744;2023-06-22T09:29:31;5.10;;;2.90;;
21624;SDS011;10974;51.034;3.744;2023-06-22T09:32:00;3.30;;;2.97;;
21624;SDS011;10974;51.034;3.744;2023-06-22T09:34:26;4.03;;;2.73;;
21624;SDS011;10974;51.034;3.744;2023-06-22T09:36:52;3.00;;;2.70;;
21624;SDS011;10974;51.034;3.744;2023-06-22T09:39:18;3.90;;;3.23;;
21624;SDS011;10974;51.034;3.744;2023-06-22T09:41:44;3.70;;;3.17;;
21624;SDS011;10974;51.034;3.744;2023-06-22T09:44:11;4.13;;;3.10;;
21624;SDS011;10974;51.034;3.744;2023-06-22T09:46:37;3.50;;;3.20;;
21624;SDS011;10974;51.034;3.744;2023-06-22T09:49:03;6.30;;;3.10;;
21624;SDS011;10974;51.034;3.744;2023-06-22T09:51:29;4.67;;;3.77;;
21624;SDS011;10974;51.034;3.744;2023-06-22T09:53:55;5.23;;;3.30;;
21624;SDS011;10974;51.034;3.744;2023-06-22T09:56:21;4.20;;;3.30;;
21624;SDS011;10974;51.034;3.744;2023-06-22T09:58:47;4.30;;;2.90;;
21624;SDS011;10974;51.034;3.744;2023-06-22T10:01:15;2.93;;;2.73;;
21624;SDS011;10974;51.034;3.744;2023-06-22T10:03:41;3.40;;;3.10;;
21624;SDS011;10974;51.034;3.744;2023-06-22T10:06:07;3.97;;;3.27;;
21624;SDS011;10974;51.034;3.744;2023-06-22T10:08:34;3.70;;;3.40;;
21624;SDS011;10974;51.034;3.744;2023-06-22T10:11:01;5.13;;;3.37;;
21624;SDS011;10974;51.034;3.744;2023-06-22T10:13:27;2.50;;;2.30;;
21624;SDS011;10974;51.034;3.744;2023-06-22T10:15:53;2.97;;;2.60;;
21624;SDS011;10974;51.034;3.744;2023-06-22T10:18:19;4.40;;;2.63;;
21624;SDS011;10974;51.034;3.744;2023-06-22T10:20:47;2.63;;;2.40;;
21624;SDS011;10974;51.034;3.744;2023-06-22T10:23:13;3.73;;;2.43;;
21624;SDS011;10974;51.034;3.744;2023-06-22T10:25:39;2.53;;;2.33;;
21624;SDS011;10974;51.034;3.744;2023-06-22T10:28:05;2.80;;;2.60;;
21624;SDS011;10974;51.034;3.744;2023-06-22T10:30:32;3.10;;;2.80;;
21624;SDS011;10974;51.034;3.744;2023-06-22T10:32:58;3.17;;;2.87;;
21624;SDS011;10974;51.034;3.744;2023-06-22T10:35:24;3.67;;;3.20;;
21624;SDS011;10974;51.034;3.744;2023-06-22T10:37:50;3.50;;;3.00;;
21624;SDS011;10974;51.034;3.744;2023-06-22T10:40:16;2.97;;;2.73;;
21624;SDS011;10974;51.034;3.744;2023-06-22T10:42:44;3.13;;;2.67;;
21624;SDS011;10974;51.034;3.744;2023-06-22T10:45:10;3.67;;;2.50;;
21624;SDS011;10974;51.034;3.744;2023-06-22T10:47:36;2.67;;;2.47;;
21624;SDS011;10974;51.034;3.744;2023-06-22T10:50:03;4.87;;;2.60;;
21624;SDS011;10974;51.034;3.744;2023-06-22T10:52:29;3.90;;;2.60;;
21624;SDS011;10974;51.034;3.744;2023-06-22T10:54:55;2.70;;;2.50;;
21624;SDS011;10974;51.034;3.744;2023-06-22T10:57:21;2.53;;;2.33;;
21624;SDS011;10974;51.034;3.744;2023-06-22T10:59:47;2.60;;;2.40;;
21624;SDS011;10974;51.034;3.744;2023-06-22T11:02:13;3.03;;;2.60;;
21624;SDS011;10974;51.034;3.744;2023-06-22T11:04:39;2.00;;;1.80;;
21624;SDS011;10974;51.034;3.744;2023-06-22T11:07:06;2.87;;;2.57;;
21624;SDS011;10974;51.034;3.744;2023-06-22T11:09:32;2.17;;;2.07;;
21624;SDS011;10974;51.034;3.744;2023-06-22T11:11:59;2.23;;;2.03;;
21624;SDS011;10974;51.034;3.744;2023-06-22T11:14:25;2.73;;;2.53;;
21624;SDS011;10974;51.034;3.744;2023-06-22T11:16:51;2.87;;;2.30;;
21624;SDS011;10974;51.034;3.744;2023-06-22T11:19:17;3.50;;;2.47;;
21624;SDS011;10974;51.034;3.744;2023-06-22T11:21:44;2.40;;;2.20;;
21624;SDS011;10974;51.034;3.744;2023-06-22T11:24:10;2.23;;;2.00;;
21624;SDS011;10974;51.034;3.744;2023-06-22T11:26:36;3.17;;;2.60;;
21624;SDS011;10974;51.034;3.744;2023-06-22T11:29:02;2.83;;;2.63;;
21624;SDS011;10974;51.034;3.744;2023-06-22T11:31:33;3.27;;;2.70;;
21624;SDS011;10974;51.034;3.744;2023-06-22T11:33:59;3.97;;;2.53;;
21624;SDS011;10974;51.034;3.744;2023-06-22T11:36:26;2.57;;;2.37;;
21624;SDS011;10974;51.034;3.744;2023-06-22T11:38:52;2.90;;;2.47;;
21624;SDS011;10974;51.034;3.744;2023-06-22T11:41:18;4.13;;;2.87;;
21624;SDS011;10974;51.034;3.744;2023-06-22T11:43:44;2.37;;;2.17;;
21624;SDS011;10974;51.034;3.744;2023-06-22T11:46:10;2.47;;;2.20;;
21624;SDS011;10974;51.034;3.744;2023-06-22T11:48:36;2.73;;;2.23;;
21624;SDS011;10974;51.034;3.744;2023-06-22T11:51:03;2.93;;;2.30;;
21624;SDS011;10974;51.034;3.744;2023-06-22T11:53:29;3.20;;;2.90;;
21624;SDS011;10974;51.034;3.744;2023-06-22T11:55:55;3.63;;;2.70;;
21624;SDS011;10974;51.034;3.744;2023-06-22T11:58:22;2.50;;;2.30;;
21624;SDS011;10974;51.034;3.744;2023-06-22T12:00:48;2.43;;;2.23;;
21624;SDS011;10974;51.034;3.744;2023-06-22T12:03:15;2.90;;;2.33;;
21624;SDS011;10974;51.034;3.744;2023-06-22T12:05:41;3.00;;;2.67;;
21624;SDS011;10974;51.034;3.744;2023-06-22T12:08:07;3.00;;;2.43;;
21624;SDS011;10974;51.034;3.744;2023-06-22T12:10:33;2.93;;;2.47;;
21624;SDS011;10974;51.034;3.744;2023-06-22T12:12:59;2.87;;;2.50;;
21624;SDS011;10974;51.034;3.744;2023-06-22T12:15:26;2.70;;;2.33;;
21624;SDS011;10974;51.034;3.744;2023-06-22T12:17:52;2.60;;;2.33;;
21624;SDS011;10974;51.034;3.744;2023-06-22T12:20:18;3.43;;;2.63;;
21624;SDS011;10974;51.034;3.744;2023-06-22T12:22:44;2.50;;;2.30;;
21624;SDS011;10974;51.034;3.744;2023-06-22T12:25:10;3.00;;;2.43;;
21624;SDS011;10974;51.034;3.744;2023-06-22T12:27:37;2.07;;;1.93;;
21624;SDS011;10974;51.034;3.744;2023-06-22T12:30:03;4.43;;;2.30;;
21624;SDS011;10974;51.034;3.744;2023-06-22T12:32:30;3.30;;;2.80;;
21624;SDS011;10974;51.034;3.744;2023-06-22T12:34:56;3.10;;;2.60;;
21624;SDS011;10974;51.034;3.744;2023-06-22T12:37:22;1.93;;;1.83;;
21624;SDS011;10974;51.034;3.744;2023-06-22T12:39:48;3.33;;;2.53;;
21624;SDS011;10974;51.034;3.744;2023-06-22T12:42:15;3.10;;;2.20;;
21624;SDS011;10974;51.034;3.744;2023-06-22T12:44:41;2.50;;;2.30;;
21624;SDS011;10974;51.034;3.744;2023-06-22T12:47:08;3.40;;;2.73;;
21624;SDS011;10974;51.034;3.744;2023-06-22T12:49:34;2.60;;;2.40;;
21624;SDS011;10974;51.034;3.744;2023-06-22T12:52:01;2.90;;;2.40;;
21624;SDS011;10974;51.034;3.744;2023-06-22T12:54:27;2.30;;;2.10;;
21624;SDS011;10974;51.034;3.744;2023-06-22T12:56:54;2.30;;;2.10;;
21624;SDS011;10974;51.034;3.744;2023-06-22T12:59:20;2.63;;;2.43;;
21624;SDS011;10974;51.034;3.744;2023-06-22T13:01:46;3.10;;;2.80;;
21624;SDS011;10974;51.034;3.744;2023-06-22T13:04:12;2.30;;;2.10;;
21624;SDS011;10974;51.034;3.744;2023-06-22T13:06:42;2.97;;;2.63;;
21624;SDS011;10974;51.034;3.744;2023-06-22T13:09:12;2.17;;;2.03;;
21624;SDS011;10974;51.034;3.744;2023-06-22T13:11:38;3.03;;;2.50;;
21624;SDS011;10974;51.034;3.744;2023-06-22T13:14:04;4.00;;;2.77;;
21624;SDS011;10974;51.034;3.744;2023-06-22T13:16:30;3.30;;;2.67;;
21624;SDS011;10974;51.034;3.744;2023-06-22T13:18:56;2.53;;;2.30;;
21624;SDS011;10974;51.034;3.744;2023-06-22T13:21:22;2.60;;;2.40;;
21624;SDS011;10974;51.034;3.744;2023-06-22T13:23:48;2.50;;;2.30;;
21624;SDS011;10974;51.034;3.744;2023-06-22T13:26:14;2.43;;;2.23;;
21624;SDS011;10974;51.034;3.744;2023-06-22T13:28:40;2.33;;;2.13;;
21624;SDS011;10974;51.034;3.744;2023-06-22T13:31:06;2.77;;;2.50;;
21624;SDS011;10974;51.034;3.744;2023-06-22T13:33:32;2.40;;;2.20;;
21624;SDS011;10974;51.034;3.744;2023-06-22T13:35:58;2.53;;;2.17;;
21624;SDS011;10974;51.034;3.744;2023-06-22T13:38:24;2.37;;;2.20;;
21624;SDS011;10974;51.034;3.744;2023-06-22T13:40:50;2.20;;;2.00;;
21624;SDS011;10974;51.034;3.744;2023-06-22T13:43:17;3.20;;;2.43;;
21624;SDS011;10974;51.034;3.744;2023-06-22T13:45:43;2.23;;;2.03;;
21624;SDS011;10974;51.034;3.744;2023-06-22T13:48:09;2.80;;;2.60;;
21624;SDS011;10974;51.034;3.744;2023-06-22T13:50:35;2.30;;;2.10;;
21624;SDS011;10974;51.034;3.744;2023-06-22T13:53:01;3.30;;;2.87;;
21624;SDS011;10974;51.034;3.744;2023-06-22T13:55:27;2.17;;;2.00;;
21624;SDS011;10974;51.034;3.744;2023-06-22T13:57:53;2.53;;;2.33;;
21624;SDS011;10974;51.034;3.744;2023-06-22T14:00:19;3.10;;;2.70;;
21624;SDS011;10974;51.034;3.744;2023-06-22T14:02:46;2.43;;;2.23;;
21624;SDS011;10974;51.034;3.744;2023-06-22T14:05:12;2.57;;;2.37;;
21624;SDS011;10974;51.034;3.744;2023-06-22T14:07:38;2.53;;;2.33;;
21624;SDS011;10974;51.034;3.744;2023-06-22T14:10:04;2.40;;;2.20;;
21624;SDS011;10974;51.034;3.744;2023-06-22T14:12:30;2.20;;;2.00;;
21624;SDS011;10974;51.034;3.744;2023-06-22T14:14:56;2.73;;;2.47;;
21624;SDS011;10974;51.034;3.744;2023-06-22T14:17:22;2.63;;;2.30;;
21624;SDS011;10974;51.034;3.744;2023-06-22T14:19:50;2.50;;;2.30;;
21624;SDS011;10974;51.034;3.744;2023-06-22T14:22:20;2.40;;;2.20;;
21624;SDS011;10974;51.034;3.744;2023-06-22T14:24:49;2.37;;;2.17;;
21624;SDS011;10974;51.034;3.744;2023-06-22T14:27:16;2.60;;;2.37;;
21624;SDS011;10974;51.034;3.744;2023-06-22T14:29:42;2.73;;;2.53;;
21624;SDS011;10974;51.034;3.744;2023-06-22T14:32:08;4.17;;;2.70;;
21624;SDS011;10974;51.034;3.744;2023-06-22T14:34:35;2.17;;;2.03;;
21624;SDS011;10974;51.034;3.744;2023-06-22T14:37:04;2.03;;;1.90;;
21624;SDS011;10974;51.034;3.744;2023-06-22T14:39:30;2.50;;;2.30;;
21624;SDS011;10974;51.034;3.744;2023-06-22T14:41:56;2.43;;;2.23;;
21624;SDS011;10974;51.034;3.744;2023-06-22T14:44:22;2.83;;;2.60;;
21624;SDS011;10974;51.034;3.744;2023-06-22T14:46:48;2.57;;;2.37;;
21624;SDS011;10974;51.034;3.744;2023-06-22T14:49:14;2.00;;;1.90;;
21624;SDS011;10974;51.034;3.744;2023-06-22T14:51:40;2.17;;;2.00;;
21624;SDS011;10974;51.034;3.744;2023-06-22T14:54:06;2.17;;;2.03;;
21624;SDS011;10974;51.034;3.744;2023-06-22T14:56:32;3.37;;;2.50;;
21624;SDS011;10974;51.034;3.744;2023-06-22T14:58:58;2.47;;;2.20;;
21624;SDS011;10974;51.034;3.744;2023-06-22T15:01:25;2.40;;;2.10;;
21624;SDS011;10974;51.034;3.744;2023-06-22T15:03:51;2.50;;;2.30;;
21624;SDS011;10974;51.034;3.744;2023-06-22T15:06:16;2.00;;;1.90;;
21624;SDS011;10974;51.034;3.744;2023-06-22T15:08:43;1.93;;;1.83;;
21624;SDS011;10974;51.034;3.744;2023-06-22T15:11:09;2.10;;;2.00;;
21624;SDS011;10974;51.034;3.744;2023-06-22T15:13:38;2.27;;;2.10;;
21624;SDS011;10974;51.034;3.744;2023-06-22T15:16:04;2.70;;;2.50;;
21624;SDS011;10974;51.034;3.744;2023-06-22T15:18:30;2.97;;;2.67;;
21624;SDS011;10974;51.034;3.744;2023-06-22T15:20:58;2.20;;;2.00;;
21624;SDS011;10974;51.034;3.744;2023-06-22T15:23:26;2.17;;;2.07;;
21624;SDS011;10974;51.034;3.744;2023-06-22T15:25:54;3.27;;;2.50;;
21624;SDS011;10974;51.034;3.744;2023-06-22T15:28:20;2.00;;;1.90;;
21624;SDS011;10974;51.034;3.744;2023-06-22T15:30:46;3.10;;;2.80;;
21624;SDS011;10974;51.034;3.744;2023-06-22T15:33:13;2.63;;;2.43;;
21624;SDS011;10974;51.034;3.744;2023-06-22T15:35:39;2.97;;;2.60;;
21624;SDS011;10974;51.034;3.744;2023-06-22T15:38:05;3.70;;;2.70;;
21624;SDS011;10974;51.034;3.744;2023-06-22T15:40:31;3.50;;;2.90;;
21624;SDS011;10974;51.034;3.744;2023-06-22T15:42:57;4.27;;;3.20;;
21624;SDS011;10974;51.034;3.744;2023-06-22T15:45:24;3.00;;;2.67;;
21624;SDS011;10974;51.034;3.744;2023-06-22T15:47:50;3.50;;;2.80;;
21624;SDS011;10974;51.034;3.744;2023-06-22T15:50:16;3.30;;;2.50;;
21624;SDS011;10974;51.034;3.744;2023-06-22T15:52:42;2.90;;;2.60;;
21624;SDS011;10974;51.034;3.744;2023-06-22T15:55:13;3.73;;;3.20;;
21624;SDS011;10974;51.034;3.744;2023-06-22T15:57:39;6.73;;;4.57;;
21624;SDS011;10974;51.034;3.744;2023-06-22T16:00:06;7.60;;;6.50;;
21624;SDS011;10974;51.034;3.744;2023-06-22T16:02:33;10.30;;;7.90;;
21624;SDS011;10974;51.034;3.744;2023-06-22T16:04:59;13.43;;;8.97;;
21624;SDS011;10974;51.034;3.744;2023-06-22T16:07:26;14.20;;;10.53;;
21624;SDS011;10974;51.034;3.744;2023-06-22T16:09:52;17.07;;;11.10;;
21624;SDS011;10974;51.034;3.744;2023-06-22T16:12:18;19.17;;;11.57;;
21624;SDS011;10974;51.034;3.744;2023-06-22T16:14:44;16.53;;;12.40;;
21624;SDS011;10974;51.034;3.744;2023-06-22T16:17:10;18.47;;;12.90;;
21624;SDS011;10974;51.034;3.744;2023-06-22T16:19:36;19.33;;;12.00;;
21624;SDS011;10974;51.034;3.744;2023-06-22T16:22:02;17.30;;;11.83;;
21624;SDS011;10974;51.034;3.744;2023-06-22T16:24:29;16.53;;;11.30;;
21624;SDS011;10974;51.034;3.744;2023-06-22T16:26:55;18.20;;;12.00;;
21624;SDS011;10974;51.034;3.744;2023-06-22T16:29:21;18.87;;;12.30;;
21624;SDS011;10974;51.034;3.744;2023-06-22T16:31:47;15.80;;;10.87;;
21624;SDS011;10974;51.034;3.744;2023-06-22T16:34:13;18.30;;;11.27;;
21624;SDS011;10974;51.034;3.744;2023-06-22T16:36:39;17.53;;;11.40;;
21624;SDS011;10974;51.034;3.744;2023-06-22T16:39:05;17.13;;;12.00;;
21624;SDS011;10974;51.034;3.744;2023-06-22T16:41:31;17.67;;;11.57;;
21624;SDS011;10974;51.034;3.744;2023-06-22T16:43:57;18.80;;;12.70;;
21624;SDS011;10974;51.034;3.744;2023-06-22T16:46:29;18.03;;;12.10;;
21624;SDS011;10974;51.034;3.744;2023-06-22T16:48:56;14.20;;;10.30;;
21624;SDS011;10974;51.034;3.744;2023-06-22T16:51:22;13.30;;;9.60;;
21624;SDS011;10974;51.034;3.744;2023-06-22T16:53:52;15.10;;;9.80;;
21624;SDS011;10974;51.034;3.744;2023-06-22T16:56:22;13.70;;;10.37;;
21624;SDS011;10974;51.034;3.744;2023-06-22T16:58:50;18.47;;;12.60;;
21624;SDS011;10974;51.034;3.744;2023-06-22T17:01:17;18.30;;;12.53;;
21624;SDS011;10974;51.034;3.744;2023-06-22T17:03:44;13.43;;;9.90;;
21624;SDS011;10974;51.034;3.744;2023-06-22T17:06:13;13.37;;;9.10;;
21624;SDS011;10974;51.034;3.744;2023-06-22T17:08:40;14.70;;;10.27;;
21624;SDS011;10974;51.034;3.744;2023-06-22T17:11:07;16.33;;;11.30;;
21624;SDS011;10974;51.034;3.744;2023-06-22T17:13:36;16.77;;;12.77;;
21624;SDS011;10974;51.034;3.744;2023-06-22T17:16:02;16.43;;;12.60;;
21624;SDS011;10974;51.034;3.744;2023-06-22T17:18:29;18.60;;;13.53;;
21624;SDS011;10974;51.034;3.744;2023-06-22T17:20:55;13.67;;;10.30;;
21624;SDS011;10974;51.034;3.744;2023-06-22T17:23:23;16.60;;;11.97;;
21624;SDS011;10974;51.034;3.744;2023-06-22T17:25:50;16.23;;;12.00;;
21624;SDS011;10974;51.034;3.744;2023-06-22T17:28:17;20.60;;;12.63;;
21624;SDS011;10974;51.034;3.744;2023-06-22T17:30:44;21.63;;;11.33;;
21624;SDS011;10974;51.034;3.744;2023-06-22T17:33:13;14.83;;;10.07;;
21624;SDS011;10974;51.034;3.744;2023-06-22T17:35:47;17.50;;;11.03;;
21624;SDS011;10974;51.034;3.744;2023-06-22T17:38:22;14.63;;;10.67;;
21624;SDS011;10974;51.034;3.744;2023-06-22T17:40:48;12.60;;;9.03;;
21624;SDS011;10974;51.034;3.744;2023-06-22T17:43:14;12.53;;;9.03;;
21624;SDS011;10974;51.034;3.744;2023-06-22T17:45:44;10.83;;;8.50;;
21624;SDS011;10974;51.034;3.744;2023-06-22T17:48:10;9.90;;;7.73;;
21624;SDS011;10974;51.034;3.744;2023-06-22T17:50:39;12.67;;;8.50;;
21624;SDS011;10974;51.034;3.744;2023-06-22T17:53:10;11.27;;;8.53;;
21624;SDS011;10974;51.034;3.744;2023-06-22T17:55:36;16.20;;;8.70;;
21624;SDS011;10974;51.034;3.744;2023-06-22T17:58:02;10.50;;;7.90;;
21624;SDS011;10974;51.034;3.744;2023-06-22T18:00:30;12.70;;;9.50;;
21624;SDS011;10974;51.034;3.744;2023-06-22T18:02:56;15.17;;;10.97;;
21624;SDS011;10974;51.034;3.744;2023-06-22T18:05:32;11.10;;;8.70;;
21624;SDS011;10974;51.034;3.744;2023-06-22T18:08:02;11.57;;;8.70;;
21624;SDS011;10974;51.034;3.744;2023-06-22T18:10:29;11.83;;;8.47;;
21624;SDS011;10974;51.034;3.744;2023-06-22T18:12:55;13.57;;;10.10;;
21624;SDS011;10974;51.034;3.744;2023-06-22T18:15:25;14.80;;;10.00;;
21624;SDS011;10974;51.034;3.744;2023-06-22T18:17:51;15.00;;;11.37;;